createdAt,value
2023-08-06T00:02:02.854Z,20.00
2023-08-06T00:04:30.625Z,20.00
2023-08-06T00:06:58.405Z,20.00
2023-08-06T00:09:26.191Z,20.06
2023-08-06T00:11:54.350Z,20.08
2023-08-06T00:14:22.481Z,20.10
2023-08-06T00:16:50.371Z,20.10
2023-08-06T00:19:18.428Z,20.00
2023-08-06T00:21:46.227Z,20.00
2023-08-06T00:24:18.816Z,20.00
2023-08-06T00:26:46.662Z,20.00
2023-08-06T00:29:14.498Z,20.00
2023-08-06T00:31:42.325Z,20.00
2023-08-06T00:34:10.211Z,20.00
2023-08-06T00:36:38.091Z,20.00
2023-08-06T00:39:05.923Z,20.00
2023-08-06T00:41:34.081Z,20.00
2023-08-06T00:44:02.082Z,19.92
2023-08-06T00:46:29.978Z,19.90
2023-08-06T00:48:58.074Z,19.90
2023-08-06T00:51:27.079Z,19.84
2023-08-06T00:53:55.939Z,19.80
2023-08-06T00:56:24.000Z,19.80
2023-08-06T00:58:52.332Z,19.80
2023-08-06T01:04:58.753Z,19.70
2023-08-06T01:07:46.572Z,19.70
2023-08-06T01:10:36.065Z,19.70
2023-08-06T01:13:24.630Z,19.70
2023-08-06T01:15:59.650Z,19.70
2023-08-06T01:18:27.726Z,19.60
2023-08-06T01:20:55.679Z,19.60
2023-08-06T01:23:25.766Z,19.60
2023-08-06T01:26:05.748Z,19.60
2023-08-06T01:28:39.462Z,19.50
2023-08-06T01:31:11.734Z,19.50
2023-08-06T01:33:45.442Z,19.50
2023-08-06T01:36:14.721Z,19.50
2023-08-06T01:38:42.553Z,19.48
2023-08-06T01:41:10.355Z,19.40
2023-08-06T01:43:38.423Z,19.40
2023-08-06T01:46:06.328Z,19.40
2023-08-06T01:48:34.278Z,19.40
2023-08-06T01:51:02.859Z,19.40
2023-08-06T01:53:30.790Z,19.40
